createdAt,value
2018-03-19T00:01:26.231Z,-1.90
2018-03-19T00:03:28.881Z,-1.80
2018-03-19T00:05:31.503Z,-1.70
2018-03-19T00:07:34.183Z,-1.70
2018-03-19T00:09:36.826Z,-1.70
2018-03-19T00:11:39.446Z,-1.70
2018-03-19T00:13:42.106Z,-1.80
2018-03-19T00:15:44.736Z,-1.80
2018-03-19T00:17:47.409Z,-1.80
2018-03-19T00:19:50.054Z,-1.80
2018-03-19T00:21:53.477Z,-1.80
2018-03-19T00:23:56.136Z,-1.80
2018-03-19T00:25:59.526Z,-1.70
2018-03-19T00:28:02.154Z,-1.70
2018-03-19T00:30:04.765Z,-1.60
2018-03-19T00:32:07.554Z,-1.50
2018-03-19T00:34:10.965Z,-1.50
2018-03-19T00:36:13.610Z,-1.50
2018-03-19T00:38:16.330Z,-1.50
2018-03-19T00:40:18.993Z,-1.40
2018-03-19T00:42:21.666Z,-1.50
2018-03-19T00:44:24.318Z,-1.50
2018-03-19T00:46:27.847Z,-1.50
2018-03-19T00:48:30.521Z,-1.50
2018-03-19T00:50:33.249Z,-1.50
2018-03-19T00:52:35.855Z,-1.60
2018-03-19T00:54:39.294Z,-1.50
2018-03-19T00:56:41.963Z,-1.50
2018-03-19T00:58:44.608Z,-1.50
2018-03-19T01:00:48.026Z,-1.50
2018-03-19T01:02:50.649Z,-1.60
2018-03-19T01:04:53.300Z,-1.60
2018-03-19T01:06:55.922Z,-1.80
2018-03-19T01:08:59.305Z,-2.00
2018-03-19T01:11:02.008Z,-2.00
2018-03-19T01:13:05.444Z,-1.70
2018-03-19T01:15:08.109Z,-1.80
2018-03-19T01:17:10.770Z,-1.70
2018-03-19T01:19:13.402Z,-1.70
2018-03-19T01:21:16.061Z,-1.60
2018-03-19T01:23:18.704Z,-1.60
2018-03-19T01:25:21.374Z,-1.60
2018-03-19T01:27:24.018Z,-1.60
2018-03-19T01:29:27.454Z,-1.60
2018-03-19T01:31:30.075Z,-1.60
2018-03-19T01:33:32.704Z,-1.70
2018-03-19T01:35:35.323Z,-1.70
2018-03-19T01:37:37.957Z,-1.70
2018-03-19T01:39:40.585Z,-1.60
2018-03-19T01:41:44.000Z,-1.50
2018-03-19T01:43:46.661Z,-1.60
2018-03-19T01:45:49.301Z,-1.60
2018-03-19T01:47:51.947Z,-1.60
2018-03-19T01:49:54.599Z,-1.60
2018-03-19T01:51:57.244Z,-1.60
2018-03-19T01:53:59.895Z,-1.70
2018-03-19T01:56:02.522Z,-1.70
2018-03-19T01:58:05.134Z,-1.60
2018-03-19T02:00:07.858Z,-1.50
2018-03-19T02:02:11.282Z,-1.60
2018-03-19T02:04:13.930Z,-1.60
2018-03-19T02:06:16.676Z,-1.50
2018-03-19T02:08:19.301Z,-1.50
2018-03-19T02:10:22.035Z,-1.50
2018-03-19T02:12:24.668Z,-1.50
2018-03-19T02:14:27.369Z,-1.50
2018-03-19T02:16:29.983Z,-1.60
2018-03-19T02:18:33.428Z,-1.70
2018-03-19T02:20:36.069Z,-1.80
2018-03-19T02:22:38.766Z,-1.80
2018-03-19T02:24:41.430Z,-1.80
2018-03-19T02:26:44.077Z,-1.90
2018-03-19T02:28:47.562Z,-1.80
2018-03-19T02:30:50.200Z,-1.80
2018-03-19T02:32:52.847Z,-1.80
2018-03-19T02:34:55.499Z,-1.70
2018-03-19T02:36:58.900Z,-1.60
2018-03-19T02:39:01.535Z,-1.60
2018-03-19T02:41:04.161Z,-1.70
2018-03-19T02:43:06.801Z,-1.80
2018-03-19T02:45:09.556Z,-1.90
2018-03-19T02:47:12.210Z,-2.00
2018-03-19T02:49:15.594Z,-1.90
2018-03-19T02:51:18.218Z,-1.90
2018-03-19T02:53:20.920Z,-1.90
2018-03-19T02:55:24.324Z,-1.90
2018-03-19T02:57:26.989Z,-1.90
2018-03-19T02:59:30.419Z,-1.80
2018-03-19T03:01:33.036Z,-1.80
2018-03-19T03:03:36.527Z,-1.70
2018-03-19T03:05:39.173Z,-1.70
2018-03-19T03:07:42.548Z,-1.80
2018-03-19T03:09:45.186Z,-1.70
2018-03-19T03:11:47.851Z,-1.70
2018-03-19T03:13:50.523Z,-1.60
2018-03-19T03:15:53.170Z,-1.70
2018-03-19T03:17:55.794Z,-1.70
2018-03-19T03:19:59.210Z,-1.80
2018-03-19T03:22:01.844Z,-1.90
2018-03-19T03:24:04.451Z,-1.90
2018-03-19T03:26:07.140Z,-1.80
2018-03-19T03:28:09.787Z,-1.90
2018-03-19T03:30:12.382Z,-1.80
2018-03-19T03:32:15.021Z,-1.80
2018-03-19T03:34:17.703Z,-1.80
2018-03-19T03:36:21.132Z,-1.80
2018-03-19T03:38:24.062Z,-1.90
2018-03-19T03:40:26.680Z,-1.70
2018-03-19T03:42:30.060Z,-1.80
2018-03-19T03:44:32.758Z,-1.80
2018-03-19T03:46:35.395Z,-1.90
2018-03-19T03:48:38.031Z,-1.80
2018-03-19T03:50:40.677Z,-1.80
2018-03-19T03:52:43.296Z,-1.80
2018-03-19T03:54:46.767Z,-1.70
2018-03-19T03:56:49.414Z,-1.70
2018-03-19T03:58:52.858Z,-1.70
2018-03-19T04:00:55.490Z,-1.70
2018-03-19T04:02:58.125Z,-1.70
2018-03-19T04:05:00.818Z,-1.80
2018-03-19T04:07:03.462Z,-1.70
2018-03-19T04:09:06.078Z,-1.70
2018-03-19T04:11:08.741Z,-1.70
2018-03-19T04:13:11.370Z,-1.60
2018-03-19T04:15:14.006Z,-1.60
2018-03-19T04:17:17.498Z,-1.60
2018-03-19T04:19:20.268Z,-1.70
2018-03-19T04:21:22.902Z,-1.70
2018-03-19T04:23:25.691Z,-1.60
2018-03-19T04:25:28.349Z,-1.70
2018-03-19T04:27:31.029Z,-1.90
2018-03-19T04:29:33.662Z,-1.80
2018-03-19T04:31:36.361Z,-1.80
2018-03-19T04:33:39.069Z,-1.90
2018-03-19T04:35:42.466Z,-1.80
2018-03-19T04:37:45.094Z,-1.80
2018-03-19T04:39:47.720Z,-1.80
2018-03-19T04:41:50.366Z,-1.80
2018-03-19T04:43:53.047Z,-1.90
2018-03-19T04:45:55.697Z,-2.00
2018-03-19T04:47:58.334Z,-2.10
2018-03-19T04:50:00.996Z,-2.10
2018-03-19T04:52:03.623Z,-2.10
2018-03-19T04:54:06.301Z,-2.10
2018-03-19T04:56:09.751Z,-2.10
2018-03-19T04:58:12.387Z,-2.10
2018-03-19T05:00:15.167Z,-2.00
2018-03-19T05:02:17.821Z,-1.90
2018-03-19T05:04:21.215Z,-1.90
2018-03-19T05:06:23.845Z,-1.90
2018-03-19T05:08:26.502Z,-1.90
2018-03-19T05:10:29.902Z,-1.80
2018-03-19T05:12:32.574Z,-1.90
2018-03-19T05:14:35.233Z,-1.80
2018-03-19T05:16:37.871Z,-1.90
2018-03-19T05:18:41.307Z,-2.00
2018-03-19T05:20:43.977Z,-2.00
2018-03-19T05:22:46.686Z,-1.90
2018-03-19T05:24:49.320Z,-2.00
2018-03-19T05:26:52.007Z,-2.00
2018-03-19T05:28:54.653Z,-2.00
2018-03-19T05:30:57.287Z,-2.00
2018-03-19T05:32:59.949Z,-1.90
2018-03-19T05:35:02.569Z,-1.90
2018-03-19T05:37:05.185Z,-1.90
2018-03-19T05:39:07.810Z,-1.90
2018-03-19T05:41:10.470Z,-1.90
2018-03-19T05:43:13.122Z,-1.80
2018-03-19T05:45:15.778Z,-1.80
2018-03-19T05:47:18.414Z,-1.80
2018-03-19T05:49:21.034Z,-2.00
2018-03-19T05:51:23.673Z,-2.00
2018-03-19T05:53:26.382Z,-2.00
2018-03-19T05:55:28.994Z,-2.00
2018-03-19T05:57:31.609Z,-1.90
2018-03-19T05:59:34.296Z,-1.80
2018-03-19T06:01:38.436Z,-1.90
2018-03-19T06:03:41.847Z,-1.90
2018-03-19T06:05:45.421Z,-1.90
2018-03-19T06:07:48.833Z,-1.90
2018-03-19T06:09:51.504Z,-1.90
2018-03-19T06:11:54.174Z,-1.90
2018-03-19T06:13:57.598Z,-1.90
2018-03-19T06:16:00.261Z,-1.90
2018-03-19T06:18:02.982Z,-1.80
2018-03-19T06:20:05.608Z,-1.90
2018-03-19T06:22:08.271Z,-1.80
2018-03-19T06:24:10.934Z,-1.60
2018-03-19T06:26:13.584Z,-1.60
2018-03-19T06:28:17.004Z,-1.70
2018-03-19T06:30:19.673Z,-1.70
2018-03-19T06:32:22.315Z,-1.60
2018-03-19T06:34:25.074Z,-1.60
2018-03-19T06:36:27.913Z,-1.60
2018-03-19T06:38:30.537Z,-1.50
2018-03-19T06:40:33.228Z,-1.50
2018-03-19T06:42:36.040Z,-1.50
2018-03-19T06:44:38.797Z,-1.60
2018-03-19T06:46:41.446Z,-1.60
2018-03-19T06:48:44.054Z,-1.60
2018-03-19T06:50:47.418Z,-1.50
2018-03-19T06:52:50.080Z,-1.50
2018-03-19T06:54:52.695Z,-1.40
2018-03-19T06:56:55.317Z,-1.40
2018-03-19T06:58:57.942Z,-1.40
2018-03-19T07:01:01.339Z,-1.40
2018-03-19T07:03:04.752Z,-1.60
2018-03-19T07:05:07.416Z,-1.60
2018-03-19T07:07:10.059Z,-1.60
2018-03-19T07:09:12.692Z,-1.70
2018-03-19T07:11:15.304Z,-1.70
2018-03-19T07:13:18.043Z,-1.60
2018-03-19T07:15:20.695Z,-1.40
2018-03-19T07:17:24.082Z,-1.30
2018-03-19T07:19:27.627Z,-1.30
2018-03-19T07:21:30.282Z,-1.30
2018-03-19T07:23:32.930Z,-1.20
2018-03-19T07:25:35.547Z,-1.20
2018-03-19T07:27:38.177Z,-1.10
2018-03-19T07:29:41.609Z,-1.10
2018-03-19T07:31:44.237Z,-1.10
2018-03-19T07:33:46.859Z,-1.00
2018-03-19T07:35:49.598Z,-0.90
2018-03-19T07:37:52.210Z,-1.10
2018-03-19T07:39:54.861Z,-1.10
2018-03-19T07:41:58.047Z,-1.00
2018-03-19T07:44:00.690Z,-0.90
2018-03-19T07:46:03.371Z,-0.80
2018-03-19T07:48:06.036Z,-0.80
2018-03-19T07:50:08.645Z,-0.70
2018-03-19T07:52:12.039Z,-0.70
2018-03-19T07:54:15.140Z,-0.70
2018-03-19T07:56:17.787Z,-0.60
2018-03-19T07:58:21.211Z,-0.60
2018-03-19T08:00:23.882Z,-0.60
2018-03-19T08:02:26.546Z,-0.60
2018-03-19T08:04:29.938Z,-0.70
2018-03-19T08:06:33.717Z,-0.70
2018-03-19T08:08:36.369Z,-0.70
2018-03-19T08:10:38.990Z,-0.80
2018-03-19T08:12:42.431Z,-0.70
2018-03-19T08:14:45.058Z,-0.70
2018-03-19T08:16:47.941Z,-0.60
2018-03-19T08:18:51.346Z,-0.60
2018-03-19T08:20:54.000Z,-0.60
2018-03-19T08:22:57.408Z,-0.60
2018-03-19T08:25:00.061Z,-0.50
2018-03-19T08:27:06.547Z,-0.50
2018-03-19T08:29:09.215Z,-0.50
2018-03-19T08:31:12.007Z,-0.60
2018-03-19T08:33:14.641Z,-0.50
2018-03-19T08:35:17.316Z,-0.40
2018-03-19T08:37:19.936Z,-0.40
2018-03-19T08:39:22.563Z,-0.40
2018-03-19T08:41:25.208Z,-0.40
2018-03-19T08:43:27.923Z,-0.50
2018-03-19T08:45:30.625Z,-0.50
2018-03-19T08:47:33.274Z,-0.60
2018-03-19T08:49:35.899Z,-0.60
2018-03-19T08:51:38.592Z,-0.60
2018-03-19T08:53:41.252Z,-0.70
2018-03-19T08:55:43.896Z,-0.70
2018-03-19T08:57:46.577Z,-0.70
2018-03-19T08:59:49.209Z,-0.70
2018-03-19T09:01:51.897Z,-0.60
2018-03-19T09:03:55.673Z,-0.60
2018-03-19T09:05:58.284Z,-0.50
2018-03-19T09:08:00.902Z,-0.40
2018-03-19T09:10:03.644Z,-0.50
2018-03-19T09:12:06.290Z,-0.40
2018-03-19T09:14:08.974Z,-0.30
2018-03-19T09:16:11.601Z,-0.20
2018-03-19T09:18:14.996Z,-0.10
2018-03-19T09:20:17.629Z,-0.10
2018-03-19T09:22:20.260Z,-0.10
2018-03-19T09:24:22.929Z,0.00
2018-03-19T09:26:25.559Z,0.00
2018-03-19T09:28:28.166Z,0.00
2018-03-19T09:30:31.554Z,-0.20
2018-03-19T09:32:34.926Z,0.00
2018-03-19T09:34:37.599Z,-0.10
2018-03-19T09:36:40.348Z,0.00
2018-03-19T09:38:42.916Z,0.00
2018-03-19T09:40:45.579Z,0.00
2018-03-19T09:42:48.214Z,0.00
2018-03-19T09:44:50.807Z,0.10
2018-03-19T09:46:54.213Z,-0.10
2018-03-19T09:48:56.843Z,-0.10
2018-03-19T09:50:59.470Z,-0.10
2018-03-19T09:53:02.215Z,0.00
2018-03-19T09:55:04.882Z,0.00
2018-03-19T09:57:07.489Z,0.00
2018-03-19T09:59:10.125Z,0.00
2018-03-19T10:01:12.795Z,0.10
2018-03-19T10:03:16.317Z,0.00
2018-03-19T10:05:18.966Z,0.00
2018-03-19T10:07:21.622Z,-0.10
2018-03-19T10:09:24.378Z,-0.20
2018-03-19T10:11:27.014Z,-0.20
2018-03-19T10:13:29.623Z,-0.20
2018-03-19T10:15:32.265Z,-0.10
2018-03-19T10:17:35.039Z,-0.10
2018-03-19T10:19:37.708Z,0.00
2018-03-19T10:21:40.837Z,0.00
2018-03-19T10:23:43.485Z,0.00
2018-03-19T10:25:46.127Z,0.10
2018-03-19T10:27:48.764Z,0.10
2018-03-19T10:29:51.382Z,0.10
2018-03-19T10:31:54.018Z,0.10
2018-03-19T10:33:56.637Z,0.10
2018-03-19T10:35:59.247Z,0.10
2018-03-19T10:38:02.674Z,0.20
2018-03-19T10:40:05.283Z,0.20
2018-03-19T10:42:07.894Z,0.30
2018-03-19T10:44:12.767Z,0.40
2018-03-19T10:46:15.424Z,0.40
2018-03-19T10:48:18.063Z,0.40
2018-03-19T10:50:21.541Z,0.50
2018-03-19T10:52:24.376Z,0.50
2018-03-19T10:54:27.277Z,0.60
2018-03-19T10:56:29.904Z,0.60
2018-03-19T10:58:32.545Z,0.60
2018-03-19T11:00:35.182Z,0.70
2018-03-19T11:02:43.428Z,0.70
2018-03-19T11:04:51.710Z,0.80
2018-03-19T11:07:00.011Z,0.80
2018-03-19T11:09:08.269Z,0.80
2018-03-19T11:11:11.708Z,0.90
2018-03-19T11:13:15.378Z,0.90
2018-03-19T11:15:18.074Z,1.00
2018-03-19T11:17:21.456Z,0.90
2018-03-19T11:19:24.081Z,0.90
2018-03-19T11:21:26.999Z,0.80
2018-03-19T11:23:30.416Z,0.70
2018-03-19T11:25:33.056Z,0.70
2018-03-19T11:27:35.685Z,0.70
2018-03-19T11:29:38.306Z,0.80
2018-03-19T11:31:40.970Z,0.70
2018-03-19T11:33:43.593Z,0.80
2018-03-19T11:35:46.202Z,0.70
2018-03-19T11:37:48.923Z,0.60
2018-03-19T11:39:51.547Z,0.80
2018-03-19T11:41:54.189Z,0.70
2018-03-19T11:43:56.825Z,0.70
2018-03-19T11:45:59.575Z,0.90
2018-03-19T11:48:03.174Z,0.80
2018-03-19T11:50:05.801Z,1.00
2018-03-19T11:52:09.282Z,1.10
2018-03-19T11:54:12.703Z,1.20
2018-03-19T11:56:15.332Z,1.20
2018-03-19T11:58:18.184Z,1.20
2018-03-19T12:00:21.539Z,1.10
2018-03-19T12:02:24.235Z,1.00
2018-03-19T12:04:26.910Z,1.00
2018-03-19T12:06:30.922Z,1.30
2018-03-19T12:08:33.586Z,1.30
2018-03-19T12:10:36.343Z,1.20
2018-03-19T12:12:39.842Z,0.90
2018-03-19T12:14:43.261Z,1.00
2018-03-19T12:16:45.882Z,1.00
2018-03-19T12:18:48.517Z,1.20
2018-03-19T12:20:51.151Z,1.10
2018-03-19T12:22:53.871Z,1.10
2018-03-19T12:24:56.530Z,1.10
2018-03-19T12:26:59.165Z,1.10
2018-03-19T12:29:01.819Z,1.10
2018-03-19T12:31:04.417Z,1.20
2018-03-19T12:33:07.052Z,1.30
2018-03-19T12:35:10.518Z,1.50
2018-03-19T12:37:13.928Z,1.50
2018-03-19T12:39:16.553Z,1.40
2018-03-19T12:41:19.248Z,1.40
2018-03-19T12:43:22.670Z,1.30
2018-03-19T12:45:25.373Z,1.30
2018-03-19T12:47:28.631Z,1.40
2018-03-19T12:49:31.271Z,1.50
2018-03-19T12:51:33.928Z,1.30
2018-03-19T12:53:37.422Z,1.40
2018-03-19T12:55:40.035Z,1.40
2018-03-19T12:57:43.437Z,1.10
2018-03-19T12:59:46.838Z,0.90
2018-03-19T13:01:49.513Z,0.90
2018-03-19T13:03:52.991Z,0.50
2018-03-19T13:05:56.413Z,0.60
2018-03-19T13:07:59.049Z,0.60
2018-03-19T13:10:02.037Z,0.70
2018-03-19T13:12:05.456Z,0.90
2018-03-19T13:14:08.113Z,0.90
2018-03-19T13:16:11.563Z,0.80
2018-03-19T13:18:14.228Z,0.80
2018-03-19T13:20:16.891Z,0.90
2018-03-19T13:22:20.514Z,0.80
2018-03-19T13:24:23.406Z,0.80
2018-03-19T13:26:26.205Z,1.00
2018-03-19T13:28:28.957Z,1.00
2018-03-19T13:30:31.910Z,0.90
2018-03-19T13:32:34.831Z,0.90
2018-03-19T13:34:39.172Z,0.70
2018-03-19T13:36:41.797Z,0.70
2018-03-19T13:38:44.653Z,0.60
2018-03-19T13:40:47.622Z,0.60
2018-03-19T13:42:51.329Z,0.70
2018-03-19T13:44:54.763Z,0.70
2018-03-19T13:46:57.550Z,0.70
2018-03-19T13:49:01.115Z,0.70
2018-03-19T13:51:03.757Z,0.70
2018-03-19T13:53:07.410Z,0.70
2018-03-19T13:55:11.098Z,0.70
2018-03-19T13:57:13.858Z,0.60
2018-03-19T13:59:17.262Z,0.60
2018-03-19T14:01:20.015Z,0.60
2018-03-19T14:03:23.488Z,0.60
2018-03-19T14:05:26.092Z,0.60
2018-03-19T14:07:29.602Z,0.60
2018-03-19T14:09:32.252Z,0.60
2018-03-19T14:11:34.885Z,0.60
2018-03-19T14:13:37.489Z,0.70
2018-03-19T14:15:40.151Z,0.60
2018-03-19T14:17:42.801Z,0.70
2018-03-19T14:19:45.496Z,0.70
2018-03-19T14:21:48.133Z,0.70
2018-03-19T14:23:50.761Z,0.60
2018-03-19T14:25:53.443Z,0.50
2018-03-19T14:27:56.196Z,0.40
2018-03-19T14:29:59.537Z,0.30
2018-03-19T14:32:03.220Z,0.30
2018-03-19T14:34:05.854Z,0.30
2018-03-19T14:36:08.496Z,0.30
2018-03-19T14:38:11.154Z,0.30
2018-03-19T14:40:13.823Z,0.30
2018-03-19T14:42:16.473Z,0.30
2018-03-19T14:44:20.439Z,0.30
2018-03-19T14:46:23.173Z,0.40
2018-03-19T14:48:26.483Z,0.40
2018-03-19T14:50:29.950Z,0.20
2018-03-19T14:52:32.549Z,0.20
2018-03-19T14:54:35.202Z,0.20
2018-03-19T14:56:37.903Z,0.20
2018-03-19T14:58:40.492Z,0.10
2018-03-19T15:00:43.149Z,0.00
2018-03-19T15:02:46.562Z,0.10
2018-03-19T15:04:49.942Z,0.10
2018-03-19T15:06:53.966Z,0.10
2018-03-19T15:08:56.614Z,0.10
2018-03-19T15:10:59.277Z,0.00
2018-03-19T15:13:02.010Z,-0.10
2018-03-19T15:15:04.668Z,-0.10
2018-03-19T15:17:08.071Z,-0.30
2018-03-19T15:19:11.081Z,-0.30
2018-03-19T15:21:13.712Z,-0.30
2018-03-19T15:23:17.202Z,-0.50
2018-03-19T15:25:20.593Z,-0.60
2018-03-19T15:27:23.266Z,-0.60
2018-03-19T15:29:26.688Z,-0.40
2018-03-19T15:31:29.471Z,-0.40
2018-03-19T15:33:32.119Z,-0.30
2018-03-19T15:35:35.540Z,-0.40
2018-03-19T15:37:38.160Z,-0.40
2018-03-19T15:39:40.948Z,-0.30
2018-03-19T15:41:43.592Z,-0.20
2018-03-19T15:43:46.254Z,-0.20
2018-03-19T15:45:48.900Z,-0.20
2018-03-19T15:47:51.636Z,-0.10
2018-03-19T15:49:54.275Z,-0.10
2018-03-19T15:51:56.949Z,-0.20
2018-03-19T15:53:59.613Z,-0.30
2018-03-19T15:56:02.305Z,-0.40
2018-03-19T15:58:04.929Z,-0.50
2018-03-19T16:00:07.557Z,-0.60
2018-03-19T16:02:10.281Z,-0.60
2018-03-19T16:04:12.905Z,-0.60
2018-03-19T16:06:15.564Z,-0.70
2018-03-19T16:08:18.978Z,-0.60
2018-03-19T16:10:22.431Z,-0.60
2018-03-19T16:12:25.067Z,-0.60
2018-03-19T16:14:27.687Z,-0.60
2018-03-19T16:16:30.328Z,-0.60
2018-03-19T16:18:32.960Z,-0.60
2018-03-19T16:20:35.573Z,-0.70
2018-03-19T16:22:38.330Z,-0.60
2018-03-19T16:24:41.073Z,-0.60
2018-03-19T16:26:44.465Z,-0.70
2018-03-19T16:28:47.103Z,-0.70
2018-03-19T16:30:49.721Z,-0.70
2018-03-19T16:32:53.153Z,-0.80
2018-03-19T16:34:55.780Z,-0.80
2018-03-19T16:36:59.246Z,-0.50
2018-03-19T16:39:01.867Z,-0.50
2018-03-19T16:41:05.298Z,-0.70
2018-03-19T16:43:07.948Z,-0.70
2018-03-19T16:45:10.606Z,-0.70
2018-03-19T16:47:13.989Z,-0.60
2018-03-19T16:49:17.457Z,-0.60
2018-03-19T16:51:20.120Z,-0.70
2018-03-19T16:53:22.773Z,-0.60
2018-03-19T16:55:25.432Z,-0.70
2018-03-19T16:57:28.072Z,-0.70
2018-03-19T16:59:30.762Z,-0.70
2018-03-19T17:01:34.226Z,-0.80
2018-03-19T17:03:36.903Z,-0.90
2018-03-19T17:05:39.566Z,-0.80
2018-03-19T17:07:42.192Z,-0.70
2018-03-19T17:09:45.603Z,-0.90
2018-03-19T17:11:48.274Z,-0.90
2018-03-19T17:13:51.685Z,-0.80
2018-03-19T17:15:54.357Z,-0.80
2018-03-19T17:17:56.972Z,-0.80
2018-03-19T17:19:59.625Z,-0.70
2018-03-19T17:22:02.250Z,-0.70
2018-03-19T17:24:04.860Z,-0.70
2018-03-19T17:26:07.481Z,-0.70
2018-03-19T17:28:10.079Z,-0.70
2018-03-19T17:30:12.698Z,-0.60
2018-03-19T17:32:15.440Z,-0.70
2018-03-19T17:34:19.236Z,-0.70
2018-03-19T17:36:21.862Z,-0.70
2018-03-19T17:38:24.531Z,-0.70
2018-03-19T17:40:27.167Z,-0.70
2018-03-19T17:42:30.680Z,-0.70
2018-03-19T17:44:33.292Z,-0.70
2018-03-19T17:46:36.052Z,-0.70
2018-03-19T17:48:39.603Z,-0.70
2018-03-19T17:50:42.230Z,-0.70
2018-03-19T17:52:44.846Z,-0.70
2018-03-19T17:54:47.489Z,-0.80
2018-03-19T17:56:50.149Z,-0.70
2018-03-19T17:58:54.057Z,-0.70
2018-03-19T18:00:56.698Z,-0.60
2018-03-19T18:03:00.105Z,-0.60
2018-03-19T18:05:02.781Z,-0.60
2018-03-19T18:07:05.417Z,-0.60
2018-03-19T18:09:08.705Z,-0.70
2018-03-19T18:11:13.103Z,-0.70
2018-03-19T18:13:16.070Z,-0.70
2018-03-19T18:15:19.612Z,-0.70
2018-03-19T18:17:22.278Z,-0.70
2018-03-19T18:19:24.914Z,-0.70
2018-03-19T18:21:27.652Z,-0.70
2018-03-19T18:23:30.564Z,-0.70
2018-03-19T18:25:33.281Z,-0.70
2018-03-19T18:27:36.062Z,-0.70
2018-03-19T18:29:38.760Z,-0.70
2018-03-19T18:31:41.468Z,-0.70
2018-03-19T18:33:44.162Z,-0.70
2018-03-19T18:35:46.861Z,-0.70
2018-03-19T18:37:49.533Z,-0.70
2018-03-19T18:39:52.179Z,-0.60
2018-03-19T18:41:55.692Z,-0.60
2018-03-19T18:43:58.495Z,-0.60
2018-03-19T18:46:01.201Z,-0.60
2018-03-19T18:48:04.616Z,-0.50
2018-03-19T18:50:07.268Z,-0.50
2018-03-19T18:52:10.737Z,-0.60
2018-03-19T18:54:14.297Z,-0.60
2018-03-19T18:56:17.357Z,-0.70
2018-03-19T18:58:20.070Z,-0.70
2018-03-19T19:00:22.795Z,-0.70
2018-03-19T19:02:25.481Z,-0.60
2018-03-19T19:04:28.153Z,-0.60
2018-03-19T19:06:30.905Z,-0.60
2018-03-19T19:08:33.597Z,-0.60
2018-03-19T19:10:36.333Z,-0.60
2018-03-19T19:12:39.002Z,-0.50
2018-03-19T19:14:41.798Z,-0.50
2018-03-19T19:16:44.487Z,-0.50
2018-03-19T19:18:47.157Z,-0.50
2018-03-19T19:20:49.808Z,-0.50
2018-03-19T19:22:52.446Z,-0.60
2018-03-19T19:24:55.886Z,-0.50
2018-03-19T19:26:58.727Z,-0.50
2018-03-19T19:29:02.156Z,-0.40
2018-03-19T19:31:04.819Z,-0.30
2018-03-19T19:33:07.586Z,-0.30
2018-03-19T19:35:10.243Z,-0.30
2018-03-19T19:37:12.903Z,-0.30
2018-03-19T19:39:15.523Z,-0.40
2018-03-19T19:41:18.169Z,-0.40
2018-03-19T19:43:21.572Z,-0.30
2018-03-19T19:45:24.997Z,-0.20
2018-03-19T19:47:27.676Z,-0.30
2018-03-19T19:49:30.375Z,-0.20
2018-03-19T19:51:33.207Z,-0.30
2018-03-19T19:53:35.873Z,-0.40
2018-03-19T19:55:39.308Z,-0.40
2018-03-19T19:57:41.975Z,-0.40
2018-03-19T19:59:44.608Z,-0.40
2018-03-19T20:01:47.261Z,-0.40
2018-03-19T20:03:49.988Z,-0.40
2018-03-19T20:05:52.679Z,-0.40
2018-03-19T20:07:55.384Z,-0.30
2018-03-19T20:09:58.089Z,-0.30
2018-03-19T20:12:00.840Z,-0.40
2018-03-19T20:14:03.588Z,-0.40
2018-03-19T20:16:06.297Z,-0.50
2018-03-19T20:18:08.985Z,-0.50
2018-03-19T20:20:11.679Z,-0.40
2018-03-19T20:22:14.321Z,-0.40
2018-03-19T20:24:16.949Z,-0.40
2018-03-19T20:26:19.627Z,-0.40
2018-03-19T20:28:22.263Z,-0.40
2018-03-19T20:30:24.980Z,-0.40
2018-03-19T20:32:28.410Z,-0.40
2018-03-19T20:34:31.076Z,-0.30
2018-03-19T20:36:33.762Z,-0.40
2018-03-19T20:38:36.388Z,-0.50
2018-03-19T20:40:39.039Z,-0.50
2018-03-19T20:42:41.687Z,-0.50
2018-03-19T20:44:44.329Z,-0.60
2018-03-19T20:46:47.761Z,-0.70
2018-03-19T20:48:50.387Z,-0.70
2018-03-19T20:50:53.035Z,-0.80
2018-03-19T20:52:55.687Z,-0.70
2018-03-19T20:54:58.368Z,-0.70
2018-03-19T20:57:01.016Z,-0.60
2018-03-19T20:59:03.674Z,-0.50
2018-03-19T21:01:07.099Z,-0.50
2018-03-19T21:03:09.722Z,-0.50
2018-03-19T21:05:12.333Z,-0.60
2018-03-19T21:07:14.978Z,-0.60
2018-03-19T21:09:17.619Z,-0.60
2018-03-19T21:11:22.330Z,-0.60
2018-03-19T21:13:25.010Z,-0.60
2018-03-19T21:15:27.679Z,-0.60
2018-03-19T21:17:30.322Z,-0.60
2018-03-19T21:19:32.966Z,-0.70
2018-03-19T21:21:35.616Z,-0.70
2018-03-19T21:23:39.541Z,-0.70
2018-03-19T21:25:42.257Z,-0.60
2018-03-19T21:27:44.893Z,-0.50
2018-03-19T21:29:47.639Z,-0.60
2018-03-19T21:31:50.276Z,-0.60
2018-03-19T21:33:52.947Z,-0.60
2018-03-19T21:35:57.773Z,-0.50
2018-03-19T21:38:01.155Z,-0.50
2018-03-19T21:40:03.786Z,-0.50
2018-03-19T21:42:06.426Z,-0.50
2018-03-19T21:44:09.841Z,-0.50
2018-03-19T21:46:12.541Z,-0.50
2018-03-19T21:48:15.188Z,-0.50
2018-03-19T21:50:17.867Z,-0.50
2018-03-19T21:52:20.473Z,-0.50
2018-03-19T21:54:23.222Z,-0.60
2018-03-19T21:56:25.916Z,-0.60
2018-03-19T21:58:28.609Z,-0.60
2018-03-19T22:00:31.248Z,-0.60
2018-03-19T22:02:33.904Z,-0.60
2018-03-19T22:04:36.599Z,-0.50
2018-03-19T22:06:39.453Z,-0.60
2018-03-19T22:08:42.196Z,-0.50
2018-03-19T22:10:44.870Z,-0.50
2018-03-19T22:12:47.565Z,-0.50
2018-03-19T22:14:50.207Z,-0.50
2018-03-19T22:16:52.881Z,-0.60
2018-03-19T22:18:55.574Z,-0.60
2018-03-19T22:20:58.220Z,-0.60
2018-03-19T22:23:00.887Z,-0.60
2018-03-19T22:25:03.619Z,-0.50
2018-03-19T22:27:06.259Z,-0.50
2018-03-19T22:29:08.879Z,-0.50
2018-03-19T22:31:11.559Z,-0.50
2018-03-19T22:33:14.311Z,-0.50
2018-03-19T22:35:17.040Z,-0.50
2018-03-19T22:37:20.571Z,-0.40
2018-03-19T22:39:23.208Z,-0.40
2018-03-19T22:41:25.841Z,-0.40
2018-03-19T22:43:28.651Z,-0.50
2018-03-19T22:45:32.114Z,-0.50
2018-03-19T22:47:34.763Z,-0.50
2018-03-19T22:49:37.406Z,-0.40
2018-03-19T22:51:40.807Z,-0.40
2018-03-19T22:53:43.459Z,-0.40
2018-03-19T22:55:46.127Z,-0.40
2018-03-19T22:57:48.834Z,-0.40
2018-03-19T22:59:51.486Z,-0.50
2018-03-19T23:01:54.115Z,-0.60
2018-03-19T23:03:56.734Z,-0.60
2018-03-19T23:05:59.370Z,-0.50
2018-03-19T23:08:02.062Z,-0.50
2018-03-19T23:10:04.703Z,-0.50
2018-03-19T23:12:07.359Z,-0.50
2018-03-19T23:14:10.089Z,-0.50
2018-03-19T23:16:12.711Z,-0.50
2018-03-19T23:18:16.108Z,-0.50
2018-03-19T23:20:19.492Z,-0.50
2018-03-19T23:22:22.885Z,-0.50
2018-03-19T23:24:26.368Z,-0.50
2018-03-19T23:26:29.064Z,-0.50
2018-03-19T23:28:31.690Z,-0.60
2018-03-19T23:30:34.342Z,-0.60
2018-03-19T23:32:37.057Z,-0.60
2018-03-19T23:34:39.704Z,-0.70
2018-03-19T23:36:42.330Z,-0.60
2018-03-19T23:38:45.810Z,-0.70
2018-03-19T23:40:48.529Z,-0.70
2018-03-19T23:42:51.338Z,-0.70
2018-03-19T23:44:53.951Z,-0.70
2018-03-19T23:46:56.598Z,-0.60
2018-03-19T23:48:59.278Z,-0.70
2018-03-19T23:51:01.948Z,-0.70
2018-03-19T23:53:04.746Z,-0.60
2018-03-19T23:55:07.374Z,-0.50
2018-03-19T23:57:10.031Z,-0.60
2018-03-19T23:59:13.475Z,-0.60
